Terminal Aerodrome Forecast
Issued by NWS Grand Junction, CO

Home | Current Version | Previous Version | Text Only | Print | Product List | Glossary On
Versions: 1 2 3 4 5 6 7 8 9 10 11 12 13 14 15 16 17 18 19 20 21 22 23 24 25 26 27 28
000
FTUS45 KGJT 182320
TAFGJT
TAF
KGJT 182320Z 1900/1924 31016G22KT P6SM SCT110
     FM190100 32008KT P6SM FEW250
     FM190300 07006KT P6SM FEW250
     FM191000 11007KT P6SM FEW250
     FM191500 14007KT P6SM FEW200
     FM191900 23005KT P6SM SCT200=

USA.gov is the U.S. government's official web portal to all federal, state and local government web resources and services.